Time;durP1;ratioP1;P1;durP2;ratioP2;P2;SDS_P1;SDS_P2;PMS_P1;PMS_P2;Temp;Humidity;BMP_temperature;BMP_pressure;BME280_temperature;BME280_humidity;BME280_pressure;Samples;Min_cycle;Max_cycle;Signal;HPM_P1;HPM_P2
2023/02/23 00:01:56;;;;;;;1999.90;999.90;;;;;;;5.73;100.00;97723.03;5092650;28;20028;-76
2023/02/23 00:04:22;;;;;;;1999.90;999.90;;;;;;;5.67;100.00;97719.47;5091003;28;20027;-78
2023/02/23 00:06:50;;;;;;;1999.90;999.90;;;;;;;5.56;100.00;97711.59;5092152;28;20020;-76
2023/02/23 00:09:33;;;;;;;1999.90;999.90;;;;;;;5.48;100.00;97714.88;5090962;28;20047;-76
2023/02/23 00:12:02;;;;;;;1999.90;999.90;;;;;;;5.37;100.00;97704.00;5092433;28;20064;-78
2023/02/23 00:14:29;;;;;;;1999.90;999.90;;;;;;;5.28;100.00;97711.03;5092884;28;20086;-78
2023/02/23 00:16:56;;;;;;;1999.90;999.90;;;;;;;5.22;100.00;97709.38;5092246;28;20016;-76
2023/02/23 00:19:23;;;;;;;1999.90;999.90;;;;;;;5.14;100.00;97709.88;5092362;28;20032;-76
2023/02/23 00:21:49;;;;;;;1999.90;999.90;;;;;;;5.10;100.00;97714.22;5090925;28;20484;-77
2023/02/23 00:24:18;;;;;;;1999.90;999.90;;;;;;;5.07;100.00;97714.75;5092428;28;20028;-76
2023/02/23 00:26:44;;;;;;;1999.90;999.90;;;;;;;4.98;100.00;97716.31;5092362;28;20023;-76
2023/02/23 00:29:19;;;;;;;1999.90;999.90;;;;;;;4.93;100.00;97713.59;5092144;28;20549;-76
2023/02/23 00:31:45;;;;;;;1999.90;999.90;;;;;;;4.87;100.00;97709.25;5092224;28;20024;-77
2023/02/23 00:34:13;;;;;;;1999.90;999.90;;;;;;;4.85;100.00;97711.41;5092270;28;20396;-76
2023/02/23 00:36:39;;;;;;;1999.90;999.90;;;;;;;4.83;100.00;97713.56;5090966;28;20032;-77
2023/02/23 00:39:20;;;;;;;1999.90;999.90;;;;;;;4.78;100.00;97706.25;5092137;28;20030;-77
2023/02/23 00:41:46;;;;;;;1999.90;999.90;;;;;;;4.74;100.00;97710.53;5091243;28;20066;-76
2023/02/23 00:44:14;;;;;;;1999.90;999.90;;;;;;;4.71;100.00;97715.69;5090845;28;20107;-76
2023/02/23 00:46:40;;;;;;;1999.90;999.90;;;;;;;4.67;100.00;97709.16;5091994;28;20031;-77
2023/02/23 00:49:06;;;;;;;1999.90;999.90;;;;;;;4.61;100.00;97704.78;5091893;28;20058;-76
2023/02/23 00:51:32;;;;;;;1999.90;999.90;;;;;;;4.50;100.00;97689.56;5091875;28;20415;-76
2023/02/23 00:53:59;;;;;;;1999.90;999.90;;;;;;;4.50;100.00;97708.53;5091746;28;20398;-76
2023/02/23 00:56:26;;;;;;;1999.90;999.90;;;;;;;4.33;100.00;97695.97;5091494;28;20057;-76
2023/02/23 00:58:52;;;;;;;1999.90;999.90;;;;;;;4.40;100.00;97703.88;5091605;28;20049;-77
2023/02/23 01:01:18;;;;;;;1999.90;999.90;;;;;;;4.33;100.00;97706.81;5091470;28;20082;-76
2023/02/23 01:03:44;;;;;;;1999.90;999.90;;;;;;;4.27;100.00;97698.91;5091433;28;20518;-76
2023/02/23 01:06:13;;;;;;;1999.90;999.90;;;;;;;4.22;100.00;97698.88;5091449;28;20085;-76
2023/02/23 01:08:41;;;;;;;1999.90;999.90;;;;;;;4.13;100.00;97693.16;5091348;28;20158;-77
2023/02/23 01:11:22;;;;;;;1999.90;999.90;;;;;;;4.14;100.00;97702.88;5091303;28;20024;-77
2023/02/23 01:13:51;;;;;;;1999.90;999.90;;;;;;;4.14;100.00;97700.19;5091617;28;20039;-76
2023/02/23 01:16:21;;;;;;;1999.90;999.90;;;;;;;3.96;100.00;97686.25;5091285;28;20464;-76
2023/02/23 01:18:47;;;;;;;1999.90;999.90;;;;;;;4.03;100.00;97697.66;5091613;28;20043;-76
2023/02/23 01:21:15;;;;;;;1999.90;999.90;;;;;;;3.99;100.00;97686.56;5093045;28;20023;-77
2023/02/23 01:23:40;;;;;;;1999.90;999.90;;;;;;;3.94;100.00;97708.16;5091767;28;20181;-76
2023/02/23 01:26:18;;;;;;;1999.90;999.90;;;;;;;3.96;100.00;97695.19;5091321;28;20495;-76
2023/02/23 01:28:47;;;;;;;1999.90;999.90;;;;;;;4.01;100.00;97689.81;5091344;28;20024;-75
2023/02/23 01:31:13;;;;;;;1999.90;999.90;;;;;;;4.01;100.00;97684.38;5091688;28;20048;-76
2023/02/23 01:33:39;;;;;;;1999.90;999.90;;;;;;;4.04;100.00;97688.50;5093076;28;20042;-76
2023/02/23 01:36:05;;;;;;;1999.90;999.90;;;;;;;3.95;100.00;97693.53;5091287;28;20024;-76
2023/02/23 01:38:31;;;;;;;1999.90;999.90;;;;;;;4.07;100.00;97688.75;5091616;28;20480;-76
2023/02/23 01:40:56;;;;;;;1999.90;999.90;;;;;;;4.12;100.00;97691.53;5091506;28;20044;-76
2023/02/23 01:43:27;;;;;;;1999.90;999.90;;;;;;;4.01;100.00;97689.00;5093024;28;20028;-75
2023/02/23 01:45:55;;;;;;;1999.90;999.90;;;;;;;4.10;100.00;97690.94;5094163;28;20024;-78
2023/02/23 01:48:33;;;;;;;1999.90;999.90;;;;;;;3.98;100.00;97673.28;5093573;28;20546;-79
2023/02/23 01:51:07;;;;;;;1999.90;999.90;;;;;;;4.08;100.00;97693.09;5090620;28;20056;-73
2023/02/23 01:53:35;;;;;;;1999.90;999.90;;;;;;;4.20;100.00;97693.72;5091121;28;20039;-74
2023/02/23 01:56:12;;;;;;;1999.90;999.90;;;;;;;4.32;100.00;97686.22;5092243;28;20063;-77
2023/02/23 01:58:42;;;;;;;1999.90;999.90;;;;;;;4.26;100.00;97687.25;5093809;28;20024;-76
2023/02/23 02:01:08;;;;;;;1999.90;999.90;;;;;;;4.36;100.00;97691.94;5093402;28;20119;-77
2023/02/23 02:03:48;;;;;;;1999.90;999.90;;;;;;;4.35;100.00;97686.78;5092601;28;20380;-76
2023/02/23 02:06:18;;;;;;;1999.90;999.90;;;;;;;4.39;100.00;97688.69;5091953;28;20030;-75
2023/02/23 02:08:53;;;;;;;1999.90;999.90;;;;;;;4.41;100.00;97691.16;5090674;28;20098;-74
2023/02/23 02:11:29;;;;;;;1999.90;999.90;;;;;;;4.33;100.00;97687.84;5090950;28;20020;-76
2023/02/23 02:14:30;;;;;;;1999.90;999.90;;;;;;;4.37;100.00;97690.03;5091232;28;20028;-76
2023/02/23 02:17:25;;;;;;;1999.90;999.90;;;;;;;4.41;100.00;97677.63;5044901;28;20062;-77
2023/02/23 02:20:25;;;;;;;1999.90;999.90;;;;;;;4.25;100.00;97680.25;5090280;28;20031;-76
2023/02/23 02:23:13;;;;;;;1999.90;999.90;;;;;;;4.18;100.00;97678.81;5090377;28;20035;-77
2023/02/23 02:25:47;;;;;;;1999.90;999.90;;;;;;;4.20;100.00;97679.38;5090581;28;20038;-75
2023/02/23 02:29:01;;;;;;;1999.90;999.90;;;;;;;4.10;100.00;97682.81;5088991;28;20395;-76
2023/02/23 02:32:13;;;;;;;1999.90;999.90;;;;;;;4.07;100.00;97672.53;5058487;28;20500;-76
2023/02/23 02:34:53;;;;;;;1999.90;999.90;;;;;;;4.16;100.00;97676.41;5084675;28;20048;-75
2023/02/23 02:37:24;;;;;;;1999.90;999.90;;;;;;;4.05;100.00;97674.69;5090415;28;20395;-76
2023/02/23 02:40:15;;;;;;;1999.90;999.90;;;;;;;3.97;100.00;97660.84;5090541;28;20020;-77
2023/02/23 02:43:10;;;;;;;1999.90;999.90;;;;;;;3.96;100.00;97670.84;5070112;28;20029;-76
2023/02/23 02:45:44;;;;;;;1999.90;999.90;;;;;;;4.03;100.00;97670.63;5069302;28;20075;-74
2023/02/23 02:48:24;;;;;;;1999.90;999.90;;;;;;;4.10;100.00;97676.63;5070229;28;20028;-74
2023/02/23 02:51:23;;;;;;;1999.90;999.90;;;;;;;4.21;100.00;97668.28;5070099;28;20028;-76
2023/02/23 02:53:52;;;;;;;1999.90;999.90;;;;;;;4.29;100.00;97665.09;5067203;28;20029;-76
2023/02/23 02:56:21;;;;;;;1999.90;999.90;;;;;;;4.37;100.00;97665.66;5069976;28;20522;-76
2023/02/23 02:58:48;;;;;;;1999.90;999.90;;;;;;;4.30;100.00;97676.72;5070388;28;20029;-74
2023/02/23 04:18:38;;;;;;;1999.90;999.90;;;;;;;4.34;100.00;97688.69;5089863;28;20040;-76
2023/02/23 04:21:06;;;;;;;1999.90;999.90;;;;;;;4.27;100.00;97683.50;5092258;28;20027;-74
2023/02/23 04:23:31;;;;;;;1999.90;999.90;;;;;;;4.35;100.00;97693.03;5090801;28;20025;-76
2023/02/23 04:25:57;;;;;;;1999.90;999.90;;;;;;;4.39;100.00;97696.00;5093400;28;20043;-76
2023/02/23 04:28:25;;;;;;;1999.90;999.90;;;;;;;4.42;100.00;97700.91;5094334;28;20032;-76
2023/02/23 04:30:53;;;;;;;1999.90;999.90;;;;;;;4.42;100.00;97704.41;5091859;28;20530;-75
2023/02/23 04:33:20;;;;;;;1999.90;999.90;;;;;;;4.41;100.00;97696.56;5091654;28;20033;-75
2023/02/23 04:35:46;;;;;;;1999.90;999.90;;;;;;;4.48;100.00;97705.28;5090743;28;20080;-75
2023/02/23 04:38:12;;;;;;;1999.90;999.90;;;;;;;4.37;100.00;97688.16;5091850;28;20066;-76
2023/02/23 04:40:37;;;;;;;1999.90;999.90;;;;;;;4.29;100.00;97681.31;5091881;28;20463;-76
2023/02/23 04:43:02;;;;;;;1999.90;999.90;;;;;;;4.43;100.00;97691.69;5091821;28;20032;-75
2023/02/23 04:45:28;;;;;;;1999.90;999.90;;;;;;;4.50;100.00;97686.88;5092274;28;20031;-75
2023/02/23 04:47:54;;;;;;;1999.90;999.90;;;;;;;4.39;100.00;97693.28;5090931;28;20119;-75
2023/02/23 04:50:20;;;;;;;1999.90;999.90;;;;;;;4.33;100.00;97695.16;5091785;28;20112;-76
2023/02/23 04:52:46;;;;;;;1999.90;999.90;;;;;;;4.38;100.00;97700.63;5091953;28;20385;-76
2023/02/23 04:55:18;;;;;;;1999.90;999.90;;;;;;;4.44;100.00;97698.75;5080375;28;20488;-76
2023/02/23 04:57:44;;;;;;;1999.90;999.90;;;;;;;4.49;100.00;97699.59;5086421;28;20046;-75
2023/02/23 05:00:10;;;;;;;1999.90;999.90;;;;;;;4.51;100.00;97704.75;5088424;28;20016;-75
2023/02/23 05:02:35;;;;;;;1999.90;999.90;;;;;;;4.50;100.00;97705.81;5071305;28;20021;-76
2023/02/23 05:05:01;;;;;;;1999.90;999.90;;;;;;;4.48;100.00;97702.56;5072224;28;20029;-76
2023/02/23 05:07:26;;;;;;;1999.90;999.90;;;;;;;4.52;100.00;97706.38;5071736;28;20040;-76
2023/02/23 05:09:51;;;;;;;1999.90;999.90;;;;;;;4.52;100.00;97700.94;5071122;28;20111;-75
2023/02/23 05:12:17;;;;;;;1999.90;999.90;;;;;;;4.53;100.00;97702.59;5071822;28;20361;-74
2023/02/23 05:14:42;;;;;;;1999.90;999.90;;;;;;;4.51;100.00;97702.03;5090063;28;20112;-76
2023/02/23 05:17:09;;;;;;;1999.90;999.90;;;;;;;4.44;100.00;97694.16;5091009;28;20055;-75
2023/02/23 05:19:35;;;;;;;1999.90;999.90;;;;;;;4.44;100.00;97696.03;5089770;28;20442;-76
2023/02/23 05:22:00;;;;;;;1999.90;999.90;;;;;;;4.40;100.00;97689.50;5091085;28;20021;-75
2023/02/23 05:24:26;;;;;;;1999.90;999.90;;;;;;;4.45;100.00;97703.09;5091212;28;20124;-76
2023/02/23 05:26:51;;;;;;;1999.90;999.90;;;;;;;4.45;100.00;97689.56;5091090;28;20024;-75
2023/02/23 05:29:18;;;;;;;1999.90;999.90;;;;;;;4.53;100.00;97702.59;5090636;28;20185;-75
2023/02/23 05:31:43;;;;;;;1999.90;999.90;;;;;;;4.46;100.00;97700.09;5090726;28;20392;-76
2023/02/23 05:34:09;;;;;;;1999.90;999.90;;;;;;;4.48;100.00;97699.88;5090828;28;20039;-75
2023/02/23 05:36:35;;;;;;;1999.90;999.90;;;;;;;4.54;100.00;97699.59;5091770;28;20106;-77
2023/02/23 05:39:01;;;;;;;1999.90;999.90;;;;;;;4.41;100.00;97693.88;5092514;28;20093;-75
2023/02/23 05:41:26;;;;;;;1999.90;999.90;;;;;;;4.45;100.00;97701.19;5091693;28;20024;-75
2023/02/23 05:43:53;;;;;;;1999.90;999.90;;;;;;;4.54;100.00;97696.91;5089936;28;20020;-77
2023/02/23 05:46:22;;;;;;;1999.90;999.90;;;;;;;4.45;100.00;97689.56;5091101;28;20051;-76
2023/02/23 05:48:49;;;;;;;1999.90;999.90;;;;;;;4.54;100.00;97701.53;5090121;28;20024;-76
2023/02/23 05:51:15;;;;;;;1999.90;999.90;;;;;;;4.67;100.00;97706.44;5090122;28;20515;-75
2023/02/23 05:53:41;;;;;;;1999.90;999.90;;;;;;;4.68;100.00;97697.25;5090442;28;20396;-75
2023/02/23 05:56:10;;;;;;;1999.90;999.90;;;;;;;4.65;100.00;97706.72;5090893;28;20032;-74
2023/02/23 05:58:36;;;;;;;1999.90;999.90;;;;;;;4.71;100.00;97710.25;5091423;28;20016;-75
2023/02/23 06:01:02;;;;;;;1999.90;999.90;;;;;;;4.72;100.00;97711.91;5090656;28;20088;-74
2023/02/23 06:03:27;;;;;;;1999.90;999.90;;;;;;;4.72;100.00;97712.72;5091202;28;20483;-74
2023/02/23 06:05:55;;;;;;;1999.90;999.90;;;;;;;4.73;100.00;97716.25;5094521;28;20153;-75
2023/02/23 06:08:22;;;;;;;1999.90;999.90;;;;;;;4.69;100.00;97718.66;5093786;28;20052;-74
2023/02/23 06:10:47;;;;;;;1999.90;999.90;;;;;;;4.73;100.00;97732.50;5090613;28;20044;-74
2023/02/23 06:13:13;;;;;;;1999.90;999.90;;;;;;;4.78;100.00;97722.50;5089796;28;20496;-73
2023/02/23 06:15:39;;;;;;;1999.90;999.90;;;;;;;4.85;100.00;97731.19;5090708;28;20103;-76
2023/02/23 06:18:06;;;;;;;1999.90;999.90;;;;;;;4.82;100.00;97730.91;5088835;28;20089;-73
2023/02/23 06:20:31;;;;;;;1999.90;999.90;;;;;;;4.75;100.00;97724.91;5088876;28;20044;-72
2023/02/23 06:22:57;;;;;;;1999.90;999.90;;;;;;;4.79;100.00;97731.44;5088515;28;20034;-71
2023/02/23 06:25:23;;;;;;;1999.90;999.90;;;;;;;4.70;100.00;97719.44;5089971;28;20476;-78
2023/02/23 06:27:48;;;;;;;1999.90;999.90;;;;;;;4.70;100.00;97735.72;5096452;28;20110;-82
2023/02/23 06:30:14;;;;;;;1999.90;999.90;;;;;;;4.71;100.00;97745.47;5096150;28;20793;-74
2023/02/23 06:32:39;;;;;;;1999.90;999.90;;;;;;;4.72;100.00;97736.28;5089996;28;20024;-75
2023/02/23 06:35:06;;;;;;;1999.90;999.90;;;;;;;4.67;100.00;97738.94;5090437;28;20035;-75
2023/02/23 06:37:32;;;;;;;1999.90;999.90;;;;;;;4.72;100.00;97741.69;5088966;28;20034;-75
2023/02/23 06:40:00;;;;;;;1999.90;999.90;;;;;;;4.72;100.00;97744.41;5087192;28;20556;-74
2023/02/23 06:42:26;;;;;;;1999.90;999.90;;;;;;;4.63;100.00;97735.97;5093627;28;20032;-75
2023/02/23 06:44:51;;;;;;;1999.90;999.90;;;;;;;4.74;100.00;97745.75;5091441;28;20062;-75
2023/02/23 06:47:20;;;;;;;1999.90;999.90;;;;;;;4.80;100.00;97752.03;5094121;28;20028;-74
2023/02/23 06:49:46;;;;;;;1999.90;999.90;;;;;;;4.84;100.00;97763.97;5093065;28;20032;-75
2023/02/23 06:52:14;;;;;;;1999.90;999.90;;;;;;;4.90;100.00;97754.78;5093791;28;20020;-74
2023/02/23 06:54:40;;;;;;;1999.90;999.90;;;;;;;4.97;100.00;97744.53;5092744;28;20039;-75
2023/02/23 06:57:07;;;;;;;1999.90;999.90;;;;;;;5.00;100.00;97754.84;5094003;28;20028;-74
2023/02/23 06:59:32;;;;;;;1999.90;999.90;;;;;;;5.02;100.00;97757.25;5095887;28;20048;-74
2023/02/23 07:01:58;;;;;;;1999.90;999.90;;;;;;;4.97;100.00;97762.69;5096495;28;20059;-74
2023/02/23 07:04:23;;;;;;;1999.90;999.90;;;;;;;4.97;100.00;97762.69;5096216;28;20032;-75
2023/02/23 07:06:48;;;;;;;1999.90;999.90;;;;;;;4.95;100.00;97764.84;5095460;28;20058;-75
2023/02/23 07:09:16;;;;;;;1999.90;999.90;;;;;;;4.94;100.00;97771.34;5093279;28;20487;-74
2023/02/23 07:11:43;;;;;;;1999.90;999.90;;;;;;;5.03;100.00;97761.63;5093288;28;20026;-74
2023/02/23 07:14:10;;;;;;;1999.90;999.90;;;;;;;5.10;100.00;97773.84;5093316;28;20059;-75
2023/02/23 07:16:36;;;;;;;1999.90;999.90;;;;;;;5.10;100.00;97787.41;5092342;28;20028;-75
2023/02/23 07:19:02;;;;;;;1999.90;999.90;;;;;;;5.09;100.00;97779.53;5094654;28;20080;-74
2023/02/23 07:21:28;;;;;;;1999.90;999.90;;;;;;;5.17;100.00;97773.63;5094998;28;20024;-74
2023/02/23 07:23:54;;;;;;;1999.90;999.90;;;;;;;5.14;100.00;97769.53;5092999;28;20032;-74
2023/02/23 07:26:19;;;;;;;1999.90;999.90;;;;;;;5.09;100.00;97764.09;5093504;28;20032;-74
2023/02/23 07:28:44;;;;;;;1999.90;999.90;;;;;;;5.24;100.00;97782.31;5093423;28;20036;-75
2023/02/23 07:31:10;;;;;;;1999.90;999.90;;;;;;;5.15;100.00;97771.16;5093535;28;20487;-74
2023/02/23 07:33:35;;;;;;;1999.90;999.90;;;;;;;5.33;100.00;97781.53;5087455;28;20028;-74
2023/02/23 07:36:00;;;;;;;1999.90;999.90;;;;;;;5.31;100.00;97791.84;5086258;28;20035;-76
2023/02/23 07:38:26;;;;;;;1999.90;999.90;;;;;;;5.39;100.00;97795.91;5093169;28;20484;-76
2023/02/23 07:40:51;;;;;;;1999.90;999.90;;;;;;;5.32;100.00;97782.63;5072843;28;20017;-75
2023/02/23 07:43:19;;;;;;;1999.90;999.90;;;;;;;5.43;100.00;97797.03;5090825;28;20043;-76
2023/02/23 07:45:44;;;;;;;1999.90;999.90;;;;;;;5.35;100.00;97786.69;5092209;28;20482;-76
2023/02/23 07:48:10;;;;;;;1999.90;999.90;;;;;;;5.41;100.00;97793.75;5092929;28;20107;-76
2023/02/23 07:50:35;;;;;;;1999.90;999.90;;;;;;;5.35;100.00;97789.41;5092842;28;20024;-75
2023/02/23 07:53:01;;;;;;;1999.90;999.90;;;;;;;5.37;100.00;97796.19;5091346;28;20036;-76
2023/02/23 07:55:27;;;;;;;1999.90;999.90;;;;;;;5.48;100.00;97796.22;5091595;28;20035;-75
2023/02/23 07:57:52;;;;;;;1999.90;999.90;;;;;;;5.59;100.00;97792.44;5091613;28;20032;-76
2023/02/23 08:00:18;;;;;;;1999.90;999.90;;;;;;;5.58;100.00;97790.81;5092765;28;20032;-76
2023/02/23 08:02:44;;;;;;;1999.90;999.90;;;;;;;5.58;100.00;97805.19;5092511;28;20024;-75
2023/02/23 08:05:09;;;;;;;1999.90;999.90;;;;;;;5.56;100.00;97799.22;5091355;28;20020;-75
2023/02/23 08:07:34;;;;;;;1999.90;999.90;;;;;;;5.48;100.00;97791.63;5092483;28;20047;-76
2023/02/23 08:10:00;;;;;;;1999.90;999.90;;;;;;;5.54;100.00;97804.13;5093312;28;20500;-75
2023/02/23 08:12:25;;;;;;;1999.90;999.90;;;;;;;5.67;100.00;97809.00;5094188;28;20032;-77
2023/02/23 08:14:52;;;;;;;1999.90;999.90;;;;;;;5.78;100.00;97799.00;5096523;28;20028;-77
2023/02/23 08:17:17;;;;;;;1999.90;999.90;;;;;;;5.75;100.00;97785.97;5097966;28;20028;-78
2023/02/23 08:19:43;;;;;;;1999.90;999.90;;;;;;;5.70;100.00;97788.69;5094214;28;20056;-76
2023/02/23 08:22:08;;;;;;;1999.90;999.90;;;;;;;5.87;100.00;97808.28;5093379;28;20089;-77
2023/02/23 08:24:33;;;;;;;1999.90;999.90;;;;;;;5.92;100.00;97792.81;5091161;28;20044;-76
2023/02/23 08:27:01;;;;;;;1999.90;999.90;;;;;;;5.98;100.00;97799.09;5092482;28;20036;-76
2023/02/23 08:29:26;;;;;;;1999.90;999.90;;;;;;;5.92;100.00;97802.84;5092412;28;20113;-77
2023/02/23 08:31:52;;;;;;;1999.90;999.90;;;;;;;6.02;100.00;97797.44;5092490;28;20120;-76
2023/02/23 08:34:19;;;;;;;1999.90;999.90;;;;;;;6.21;100.00;97806.69;5092479;28;20105;-76
2023/02/23 08:36:44;;;;;;;1999.90;999.90;;;;;;;6.54;100.00;97796.38;5092188;28;20019;-76
2023/02/23 08:39:11;;;;;;;1999.90;999.90;;;;;;;6.72;100.00;97809.41;5090734;28;20029;-76
2023/02/23 08:41:39;;;;;;;1999.90;999.90;;;;;;;6.80;100.00;97817.81;5090638;28;20042;-76
2023/02/23 08:44:04;;;;;;;1999.90;999.90;;;;;;;6.44;100.00;97803.44;5091178;28;20483;-76
2023/02/23 08:46:30;;;;;;;1999.90;999.90;;;;;;;6.24;100.00;97800.72;5093892;28;20036;-80
2023/02/23 08:48:56;;;;;;;1999.90;999.90;;;;;;;6.24;100.00;97802.63;5092859;28;20447;-75
2023/02/23 08:51:21;;;;;;;1999.90;999.90;;;;;;;6.55;100.00;97809.69;5092173;28;20395;-76
2023/02/23 08:53:47;;;;;;;1999.90;999.90;;;;;;;6.63;100.00;97824.63;5090724;28;20031;-76
2023/02/23 08:56:14;;;;;;;1999.90;999.90;;;;;;;6.63;100.00;97824.63;5091714;28;20059;-76
2023/02/23 08:58:39;;;;;;;1999.90;999.90;;;;;;;6.63;100.00;97821.91;5091846;28;20475;-75
2023/02/23 09:01:05;;;;;;;1999.90;999.90;;;;;;;6.54;100.00;97815.41;5091770;28;20024;-75
2023/02/23 09:03:31;;;;;;;1999.90;999.90;;;;;;;6.74;100.00;97820.78;5091054;28;20066;-77
2023/02/23 09:06:04;;;;;;;1999.90;999.90;;;;;;;6.86;100.00;97838.44;5091854;28;20115;-75
2023/02/23 09:08:30;;;;;;;1999.90;999.90;;;;;;;6.82;100.00;97831.13;5091701;28;20122;-76
2023/02/23 09:10:55;;;;;;;1999.90;999.90;;;;;;;6.77;100.00;97826.50;5090428;28;20118;-75
2023/02/23 09:13:20;;;;;;;1999.90;999.90;;;;;;;6.63;100.00;97824.63;5091300;28;20394;-76
2023/02/23 09:15:46;;;;;;;1999.90;999.90;;;;;;;6.66;100.00;97834.94;5091652;28;20043;-75
2023/02/23 09:18:13;;;;;;;1999.90;999.90;;;;;;;6.63;100.00;97830.06;5091467;28;20040;-75
2023/02/23 09:20:43;;;;;;;1999.90;999.90;;;;;;;6.57;100.00;97831.97;5091120;28;20480;-75
2023/02/23 09:23:10;;;;;;;1999.90;999.90;;;;;;;6.53;100.00;97835.50;5091443;28;20731;-75
2023/02/23 09:25:42;;;;;;;1999.90;999.90;;;;;;;6.56;100.00;97834.94;5091387;28;20484;-75
2023/02/23 09:28:10;;;;;;;1999.90;999.90;;;;;;;6.50;100.00;97836.03;5091523;28;20525;-76
2023/02/23 09:30:36;;;;;;;1999.90;999.90;;;;;;;6.47;100.00;97838.22;5091344;28;20023;-75
2023/02/23 09:33:02;;;;;;;1999.90;999.90;;;;;;;6.46;100.00;97842.00;5091285;28;20480;-76
2023/02/23 09:35:27;;;;;;;1999.90;999.90;;;;;;;6.41;100.00;97839.31;5091104;28;20028;-75
2023/02/23 09:37:54;;;;;;;1999.90;999.90;;;;;;;6.46;100.00;97847.44;5091193;28;20028;-76
2023/02/23 09:40:26;;;;;;;1999.90;999.90;;;;;;;6.46;100.00;97847.44;5091146;28;20028;-76
2023/02/23 09:43:10;;;;;;;1999.90;999.90;;;;;;;6.41;100.00;97843.94;5090968;28;20111;-76
2023/02/23 09:45:39;;;;;;;1999.90;999.90;;;;;;;6.43;100.00;97850.72;5091123;28;20024;-76
2023/02/23 09:48:08;;;;;;;1999.90;999.90;;;;;;;6.31;100.00;97844.72;5090973;28;20028;-77
2023/02/23 09:50:37;;;;;;;1999.90;999.90;;;;;;;6.38;100.00;97847.19;5091113;28;20025;-77
2023/02/23 09:53:12;;;;;;;1999.90;999.90;;;;;;;6.36;100.00;97850.16;5090843;28;20028;-75
2023/02/23 09:55:40;;;;;;;1999.90;999.90;;;;;;;6.34;100.00;97849.63;5091194;28;20526;-76
2023/02/23 09:58:32;;;;;;;1999.90;999.90;;;;;;;6.25;100.00;97834.94;5091058;28;20387;-75
2023/02/23 10:01:15;;;;;;;1999.90;999.90;;;;;;;6.31;100.00;97850.16;5090816;28;20035;-75
2023/02/23 10:04:34;;;;;;;1999.90;999.90;;;;;;;6.32;100.00;97850.97;5090692;28;20020;-76
2023/02/23 10:07:11;;;;;;;1999.90;999.90;;;;;;;6.43;100.00;97845.28;5028336;28;20065;-75
2023/02/23 10:10:07;;;;;;;1999.90;999.90;;;;;;;6.41;100.00;97854.78;5090176;28;20059;-76
2023/02/23 10:13:00;;;;;;;1999.90;999.90;;;;;;;6.30;100.00;97853.97;5090816;28;20032;-75
2023/02/23 10:15:41;;;;;;;1999.90;999.90;;;;;;;6.28;100.00;97858.03;5094923;28;20043;-76
2023/02/23 10:18:26;;;;;;;1999.90;999.90;;;;;;;6.34;100.00;97849.63;5097405;28;20119;-76
2023/02/23 10:21:05;;;;;;;1999.90;999.90;;;;;;;6.35;100.00;97845.81;5097969;28;20032;-78
2023/02/23 10:23:45;;;;;;;1999.90;999.90;;;;;;;6.40;100.00;97851.25;5099177;28;20115;-77
2023/02/23 10:26:24;;;;;;;1999.90;999.90;;;;;;;6.45;100.00;97851.25;5100208;28;20032;-75
2023/02/23 10:28:53;;;;;;;1999.90;999.90;;;;;;;6.48;100.00;97850.69;5097341;28;20077;-75
2023/02/23 10:31:27;;;;;;;1999.90;999.90;;;;;;;6.52;100.00;97855.59;5097180;28;20436;-75
2023/02/23 10:33:57;;;;;;;1999.90;999.90;;;;;;;6.51;100.00;97848.53;5097272;28;20126;-79
2023/02/23 10:36:37;;;;;;;1999.90;999.90;;;;;;;6.53;100.00;97843.66;5098516;28;20115;-79
2023/02/23 10:39:08;;;;;;;1999.90;999.90;;;;;;;6.48;100.00;97839.03;5098704;28;20094;-75
2023/02/23 10:41:35;;;;;;;1999.90;999.90;;;;;;;6.53;100.00;97844.47;5095706;28;20024;-75
2023/02/23 10:44:02;;;;;;;1999.90;999.90;;;;;;;6.56;100.00;97838.50;5097334;28;20493;-75
2023/02/23 10:46:38;;;;;;;1999.90;999.90;;;;;;;6.54;100.00;97835.25;5097017;28;20035;-75
2023/02/23 10:49:06;;;;;;;1999.90;999.90;;;;;;;6.55;100.00;97828.69;5097094;28;20024;-75
2023/02/23 10:51:36;;;;;;;1999.90;999.90;;;;;;;6.53;100.00;97828.16;5096987;28;20638;-75
2023/02/23 10:54:35;;;;;;;1999.90;999.90;;;;;;;6.62;100.00;97833.84;5095590;28;20118;-75
2023/02/23 10:57:03;;;;;;;1999.90;999.90;;;;;;;6.66;100.00;97835.78;5096991;28;20031;-75
2023/02/23 10:59:29;;;;;;;1999.90;999.90;;;;;;;6.63;100.00;97824.63;5096994;28;20063;-76
2023/02/23 11:01:55;;;;;;;1999.90;999.90;;;;;;;6.63;100.00;97817.28;5096891;28;20051;-76
2023/02/23 11:04:23;;;;;;;1999.90;999.90;;;;;;;6.76;100.00;97829.50;5095311;28;20126;-76
2023/02/23 11:06:49;;;;;;;1999.90;999.90;;;;;;;6.77;100.00;97828.41;5096624;28;20484;-76
2023/02/23 11:09:29;;;;;;;1999.90;999.90;;;;;;;6.80;100.00;97831.38;5096797;28;20039;-76
2023/02/23 11:12:22;;;;;;;1999.90;999.90;;;;;;;6.87;100.00;97820.25;5095249;28;20032;-75
2023/02/23 11:14:49;;;;;;;1999.90;999.90;;;;;;;6.94;100.00;97834.38;5096463;28;20044;-75
2023/02/23 11:17:28;;;;;;;1999.90;999.90;;;;;;;7.11;100.00;97820.47;5095593;28;20024;-76
2023/02/23 11:20:24;;;;;;;1999.90;999.90;;;;;;;7.09;100.00;97819.91;5096951;28;20032;-75
2023/02/23 11:22:51;;;;;;;1999.90;999.90;;;;;;;7.07;100.00;97822.94;5096818;28;20062;-76
2023/02/23 11:25:31;;;;;;;1999.90;999.90;;;;;;;7.10;100.00;97816.94;5095444;28;20056;-75
2023/02/23 11:27:58;;;;;;;1999.90;999.90;;;;;;;7.13;100.00;97818.28;5092843;28;20031;-75
2023/02/23 11:30:36;;;;;;;1999.90;999.90;;;;;;;7.20;100.00;97819.63;5093631;28;20036;-76
2023/02/23 11:33:10;;;;;;;1999.90;999.90;;;;;;;7.23;100.00;97812.81;5093548;28;20392;-75
2023/02/23 11:35:37;;;;;;;1999.90;999.90;;;;;;;7.27;100.00;97813.88;5093870;28;20097;-76
2023/02/23 11:38:20;;;;;;;1999.90;999.90;;;;;;;7.31;100.00;97806.78;5092156;28;20028;-75
2023/02/23 11:41:16;;;;;;;1999.90;999.90;;;;;;;7.28;100.00;97816.31;5092977;28;20028;-78
2023/02/23 11:43:50;;;;;;;1999.90;999.90;;;;;;;7.19;100.00;97804.41;5093473;28;20036;-76
2023/02/23 11:46:18;;;;;;;1999.90;999.90;;;;;;;7.26;100.00;97812.25;5093176;28;20039;-76
2023/02/23 11:48:58;;;;;;;1999.90;999.90;;;;;;;7.32;100.00;97806.53;5093187;28;20031;-75
2023/02/23 11:51:31;;;;;;;1999.90;999.90;;;;;;;7.48;100.00;97805.38;5092917;28;20459;-76
2023/02/23 11:53:59;;;;;;;1999.90;999.90;;;;;;;7.62;100.00;97799.31;5092854;28;20587;-78
2023/02/23 11:56:26;;;;;;;1999.90;999.90;;;;;;;7.66;100.00;97805.81;5093686;28;20070;-78
2023/02/23 11:58:56;;;;;;;1999.90;999.90;;;;;;;7.59;100.00;97784.34;5091799;28;20035;-81
2023/02/23 12:01:44;;;;;;;1999.90;999.90;;;;;;;7.77;100.00;97810.13;5092970;28;20119;-77
2023/02/23 12:04:31;;;;;;;1999.90;999.90;;;;;;;7.63;100.00;97769.09;5093227;28;20380;-78
2023/02/23 12:07:24;;;;;;;1999.90;999.90;;;;;;;7.84;100.00;97797.00;5092322;28;20024;-76
2023/02/23 12:09:59;;;;;;;1999.90;999.90;;;;;;;7.82;100.00;97796.47;5097259;28;20077;-76
2023/02/23 12:12:28;;;;;;;1999.90;999.90;;;;;;;7.75;100.00;97785.91;5095149;28;20032;-75
2023/02/23 12:15:10;;;;;;;1999.90;999.90;;;;;;;7.85;100.00;97798.63;5094761;28;20028;-75
2023/02/23 12:17:41;;;;;;;1999.90;999.90;;;;;;;7.80;100.00;97793.25;5092677;28;20024;-76
2023/02/23 12:20:13;;;;;;;1999.90;999.90;;;;;;;7.82;100.00;97800.03;5093991;28;20031;-75
2023/02/23 12:22:43;;;;;;;1999.90;999.90;;;;;;;7.78;100.00;97779.88;5095114;28;20076;-79
2023/02/23 12:25:27;;;;;;;1999.90;999.90;;;;;;;7.79;100.00;97797.03;5096822;28;20055;-77
2023/02/23 12:28:15;;;;;;;1999.90;999.90;;;;;;;7.88;100.00;97798.91;5091772;28;20039;-76